Time;durP1;ratioP1;P1;durP2;ratioP2;P2;SDS_P1;SDS_P2;PMS_P1;PMS_P2;Temp;Humidity;BMP_temperature;BMP_pressure;BME280_temperature;BME280_humidity;BME280_pressure;Samples;Min_cycle;Max_cycle;Signal;HPM_P1;HPM_P2
2023/09/03 00:00:12;;;;;;;;;;;25.30;55.60;;;;;;5057013;28;19960;-62
2023/09/03 00:02:39;;;;;;;;;;;25.30;55.60;;;;;;5056745;28;19925;-61
2023/09/03 00:05:07;;;;;;;;;;;25.30;55.60;;;;;;5043839;28;19948;-62
2023/09/03 00:07:33;;;;;;;;;;;25.30;55.60;;;;;;5037093;28;20016;-61
2023/09/03 00:10:00;;;;;;;;;;;25.30;55.70;;;;;;5049008;28;19925;-62
2023/09/03 00:12:27;;;;;;;;;;;25.30;55.70;;;;;;5058567;28;19928;-61
2023/09/03 00:14:54;;;;;;;;;;;25.20;55.70;;;;;;5063805;28;19925;-60
2023/09/03 00:17:22;;;;;;;;;;;25.30;55.70;;;;;;5064505;28;19925;-60
2023/09/03 00:19:49;;;;;;;;;;;25.20;55.70;;;;;;5063735;28;20325;-61
2023/09/03 00:22:16;;;;;;;;;;;25.20;55.70;;;;;;5056991;28;19925;-61
2023/09/03 00:24:43;;;;;;;;;;;25.20;55.70;;;;;;5057553;28;20011;-60
2023/09/03 00:27:09;;;;;;;;;;;25.20;55.70;;;;;;5057000;28;19963;-61
2023/09/03 00:29:36;;;;;;;;;;;25.20;55.70;;;;;;5056906;28;19931;-61
2023/09/03 00:32:03;;;;;;;;;;;25.20;55.70;;;;;;5054240;28;19987;-60
2023/09/03 00:34:32;;;;;;;;;;;25.20;55.70;;;;;;5063752;28;19955;-61
2023/09/03 00:36:59;;;;;;;;;;;25.20;55.70;;;;;;5076695;28;19951;-60
2023/09/03 00:39:26;;;;;;;;;;;25.20;55.70;;;;;;5066480;28;20007;-61
2023/09/03 00:41:53;;;;;;;;;;;25.20;55.70;;;;;;5056057;28;19972;-60
2023/09/03 00:44:20;;;;;;;;;;;25.20;55.70;;;;;;5055983;28;20015;-61
2023/09/03 00:46:47;;;;;;;;;;;25.20;55.70;;;;;;5056151;28;19983;-61
2023/09/03 00:49:19;;;;;;;;;;;25.20;55.80;;;;;;5056552;28;20388;-61
2023/09/03 00:51:46;;;;;;;;;;;25.20;56.30;;;;;;5055678;28;20011;-60
2023/09/03 00:54:13;;;;;;;;;;;25.20;55.80;;;;;;5064945;28;19931;-61
2023/09/03 00:56:41;;;;;;;;;;;25.20;55.80;;;;;;5076313;28;20382;-61
2023/09/03 00:59:08;;;;;;;;;;;25.20;55.80;;;;;;5056826;28;19929;-60
2023/09/03 01:01:36;;;;;;;;;;;25.10;55.70;;;;;;5055961;28;19925;-61
2023/09/03 01:04:03;;;;;;;;;;;25.20;55.80;;;;;;5052914;28;20292;-60
2023/09/03 01:06:30;;;;;;;;;;;25.20;55.80;;;;;;5069514;28;19963;-60
2023/09/03 01:08:56;;;;;;;;;;;25.20;55.80;;;;;;5071922;28;19964;-60
2023/09/03 01:11:31;;;;;;;;;;;25.20;55.80;;;;;;5075861;28;20376;-61
2023/09/03 01:14:11;;;;;;;;;;;25.20;55.80;;;;;;5058567;28;20353;-60
2023/09/03 01:16:49;;;;;;;;;;;25.20;55.80;;;;;;5073809;28;19943;-60
2023/09/03 01:19:36;;;;;;;;;;;25.20;55.80;;;;;;5069104;28;20381;-62
2023/09/03 01:22:14;;;;;;;;;;;25.20;55.80;;;;;;5068722;28;19970;-60
2023/09/03 01:25:04;;;;;;;;;;;25.20;55.80;;;;;;5065179;28;19931;-60
2023/09/03 01:27:51;;;;;;;;;;;25.20;55.80;;;;;;5055418;28;19924;-60
2023/09/03 01:30:19;;;;;;;;;;;25.10;55.80;;;;;;5055201;28;19932;-61
2023/09/03 01:32:46;;;;;;;;;;;25.20;55.80;;;;;;5055584;28;19924;-60
2023/09/03 01:35:14;;;;;;;;;;;25.10;55.80;;;;;;5054817;28;19925;-60
2023/09/03 01:37:41;;;;;;;;;;;25.20;55.90;;;;;;5055159;28;19955;-61
2023/09/03 01:40:09;;;;;;;;;;;25.20;55.80;;;;;;5054909;28;20462;-60
2023/09/03 01:42:36;;;;;;;;;;;25.10;55.80;;;;;;5054669;28;19925;-61
2023/09/03 01:45:03;;;;;;;;;;;25.20;55.80;;;;;;5054222;28;19968;-60
2023/09/03 01:47:34;;;;;;;;;;;25.20;55.80;;;;;;5055084;28;20016;-61
2023/09/03 01:50:14;;;;;;;;;;;25.20;55.70;;;;;;5061006;28;19924;-60
2023/09/03 01:52:47;;;;;;;;;;;25.20;55.70;;;;;;5055622;28;20015;-61
2023/09/03 01:55:15;;;;;;;;;;;25.20;55.70;;;;;;5054623;28;20019;-60
2023/09/03 01:57:47;;;;;;;;;;;25.20;55.70;;;;;;5055026;28;19964;-61
2023/09/03 02:00:15;;;;;;;;;;;25.20;55.70;;;;;;5054845;28;19982;-60
2023/09/03 02:02:47;;;;;;;;;;;25.20;55.70;;;;;;5054874;28;19931;-60
2023/09/03 02:05:15;;;;;;;;;;;25.20;55.60;;;;;;5054270;28;20023;-60
2023/09/03 02:07:42;;;;;;;;;;;25.20;55.60;;;;;;5055055;28;19978;-60
2023/09/03 02:10:09;;;;;;;;;;;25.20;55.60;;;;;;5054644;28;19925;-61
2023/09/03 02:12:36;;;;;;;;;;;25.20;55.60;;;;;;5054868;28;19974;-60
2023/09/03 02:15:04;;;;;;;;;;;25.20;55.70;;;;;;5053943;28;19925;-60
2023/09/03 02:17:31;;;;;;;;;;;25.20;55.60;;;;;;5052784;28;20438;-61
2023/09/03 02:19:58;;;;;;;;;;;25.20;55.60;;;;;;5053853;28;19925;-60
2023/09/03 02:22:25;;;;;;;;;;;25.20;55.60;;;;;;5045491;28;19968;-61
2023/09/03 02:24:52;;;;;;;;;;;25.20;55.90;;;;;;5050199;28;19928;-60
2023/09/03 02:27:19;;;;;;;;;;;25.20;55.70;;;;;;5054603;28;19929;-60
2023/09/03 02:29:46;;;;;;;;;;;25.20;55.70;;;;;;5039837;28;19952;-60
2023/09/03 02:32:13;;;;;;;;;;;25.20;55.70;;;;;;5052342;28;19925;-60
2023/09/03 02:34:40;;;;;;;;;;;25.20;55.70;;;;;;5043143;28;19924;-61
2023/09/03 02:37:07;;;;;;;;;;;25.10;55.70;;;;;;5050359;28;19979;-60
2023/09/03 02:39:34;;;;;;;;;;;25.10;55.70;;;;;;5044663;28;20377;-61
2023/09/03 02:42:02;;;;;;;;;;;25.10;55.70;;;;;;5053459;28;20415;-60
2023/09/03 02:44:29;;;;;;;;;;;25.10;55.70;;;;;;5044511;28;19928;-61
2023/09/03 02:46:56;;;;;;;;;;;25.10;55.80;;;;;;5041247;28;19931;-60
2023/09/03 02:49:23;;;;;;;;;;;25.10;55.70;;;;;;5045615;28;19979;-61
2023/09/03 02:51:50;;;;;;;;;;;25.10;55.80;;;;;;5052962;28;19929;-62
2023/09/03 02:54:18;;;;;;;;;;;25.10;55.80;;;;;;5034876;28;19951;-60
2023/09/03 02:56:46;;;;;;;;;;;25.10;55.80;;;;;;5032720;28;20424;-60
2023/09/03 02:59:13;;;;;;;;;;;25.10;55.80;;;;;;5034314;28;19979;-60
2023/09/03 03:01:42;;;;;;;;;;;25.10;55.80;;;;;;5053481;28;20011;-61
2023/09/03 03:04:09;;;;;;;;;;;25.10;55.80;;;;;;5034172;28;19936;-60
2023/09/03 03:06:36;;;;;;;;;;;25.10;55.80;;;;;;5053192;28;19928;-61
2023/09/03 03:09:04;;;;;;;;;;;25.20;55.90;;;;;;5053391;28;19978;-61
2023/09/03 03:11:31;;;;;;;;;;;25.10;55.80;;;;;;5042879;28;19932;-60
2023/09/03 03:13:58;;;;;;;;;;;25.10;55.80;;;;;;5057508;28;20024;-61
2023/09/03 03:16:25;;;;;;;;;;;25.10;55.80;;;;;;5053287;28;19925;-62
2023/09/03 03:18:52;;;;;;;;;;;25.10;55.80;;;;;;5052471;28;19986;-61
2023/09/03 03:21:20;;;;;;;;;;;25.10;55.80;;;;;;5056921;28;19929;-61
2023/09/03 03:23:51;;;;;;;;;;;25.10;55.80;;;;;;5072852;28;20325;-61
2023/09/03 03:26:19;;;;;;;;;;;25.10;55.80;;;;;;5060717;28;19986;-61
2023/09/03 03:28:46;;;;;;;;;;;25.10;55.90;;;;;;5072528;28;19952;-61
2023/09/03 03:31:14;;;;;;;;;;;25.10;55.90;;;;;;5058358;28;19924;-60
2023/09/03 03:33:42;;;;;;;;;;;25.10;55.90;;;;;;5052287;28;20274;-61
2023/09/03 03:36:12;;;;;;;;;;;25.10;55.80;;;;;;5052415;28;19933;-60
2023/09/03 03:38:38;;;;;;;;;;;25.10;55.90;;;;;;5085441;28;19970;-61
2023/09/03 03:41:10;;;;;;;;;;;25.10;55.90;;;;;;5056601;28;19925;-60
2023/09/03 03:43:38;;;;;;;;;;;25.10;55.90;;;;;;5072530;28;19986;-60
2023/09/03 03:46:06;;;;;;;;;;;25.10;55.80;;;;;;5060140;28;19925;-60
2023/09/03 03:48:33;;;;;;;;;;;25.10;55.90;;;;;;5051489;28;19931;-61
2023/09/03 03:51:00;;;;;;;;;;;25.10;55.90;;;;;;5055755;28;19932;-61
2023/09/03 03:53:27;;;;;;;;;;;25.10;55.80;;;;;;5072907;28;19964;-60
2023/09/03 03:56:05;;;;;;;;;;;25.10;55.80;;;;;;5061721;28;19925;-61
2023/09/03 03:58:34;;;;;;;;;;;25.10;55.80;;;;;;5051680;28;19974;-61
2023/09/03 04:01:10;;;;;;;;;;;25.10;55.70;;;;;;5049375;28;20007;-61
2023/09/03 04:03:37;;;;;;;;;;;25.10;55.70;;;;;;5052644;28;19924;-61
2023/09/03 04:06:04;;;;;;;;;;;25.10;55.70;;;;;;5060898;28;19931;-61
2023/09/03 04:08:32;;;;;;;;;;;25.10;55.70;;;;;;5049557;28;19971;-61
2023/09/03 04:11:00;;;;;;;;;;;25.10;55.70;;;;;;5067954;28;19928;-60
2023/09/03 04:13:27;;;;;;;;;;;25.10;55.60;;;;;;5065833;28;19929;-61
2023/09/03 04:15:55;;;;;;;;;;;25.10;55.60;;;;;;5066719;28;19968;-60
2023/09/03 04:18:22;;;;;;;;;;;25.10;55.60;;;;;;5072865;28;20003;-61
2023/09/03 04:20:51;;;;;;;;;;;25.10;55.60;;;;;;5063516;28;20173;-61
2023/09/03 04:23:18;;;;;;;;;;;25.10;55.60;;;;;;5051705;28;19971;-60
2023/09/03 04:25:45;;;;;;;;;;;25.10;55.60;;;;;;5060111;28;19982;-62
2023/09/03 04:28:12;;;;;;;;;;;25.20;55.60;;;;;;5059897;28;19955;-61
2023/09/03 04:30:40;;;;;;;;;;;25.20;55.60;;;;;;5056326;28;20364;-60
2023/09/03 04:33:07;;;;;;;;;;;25.20;55.60;;;;;;5052828;28;20348;-61
2023/09/03 04:35:34;;;;;;;;;;;25.10;55.40;;;;;;5054862;28;19925;-60
2023/09/03 04:38:04;;;;;;;;;;;25.10;55.50;;;;;;5072858;28;20027;-60
2023/09/03 04:40:32;;;;;;;;;;;25.10;55.60;;;;;;5066982;28;20460;-61
2023/09/03 04:42:59;;;;;;;;;;;25.00;55.60;;;;;;5060642;28;20415;-60
2023/09/03 04:45:25;;;;;;;;;;;24.80;55.80;;;;;;5065290;28;19970;-61
2023/09/03 04:47:52;;;;;;;;;;;24.60;56.00;;;;;;5076159;28;19954;-60
2023/09/03 04:50:20;;;;;;;;;;;24.30;55.00;;;;;;5071631;28;19925;-60
2023/09/03 04:52:48;;;;;;;;;;;24.00;53.30;;;;;;5066442;28;19980;-61
2023/09/03 04:55:15;;;;;;;;;;;23.70;52.00;;;;;;5057955;28;19971;-60
2023/09/03 04:57:42;;;;;;;;;;;23.40;51.10;;;;;;5070618;28;20300;-60
2023/09/03 05:00:10;;;;;;;;;;;23.10;50.10;;;;;;5062094;28;19925;-60
2023/09/03 05:02:37;;;;;;;;;;;22.80;49.80;;;;;;5062296;28;19925;-60
2023/09/03 05:05:05;;;;;;;;;;;22.50;49.80;;;;;;5058189;28;19924;-60
2023/09/03 05:07:32;;;;;;;;;;;22.30;49.90;;;;;;5060078;28;20387;-60
2023/09/03 05:09:59;;;;;;;;;;;22.00;50.10;;;;;;5066588;28;19925;-60
2023/09/03 05:12:26;;;;;;;;;;;21.70;49.20;;;;;;5060562;28;20377;-60
2023/09/03 05:14:53;;;;;;;;;;;21.40;50.10;;;;;;5060627;28;19931;-62
2023/09/03 05:17:20;;;;;;;;;;;21.20;50.40;;;;;;5057022;28;20325;-60
2023/09/03 05:19:48;;;;;;;;;;;21.00;51.30;;;;;;5051834;28;19925;-60
2023/09/03 05:22:15;;;;;;;;;;;20.80;51.00;;;;;;5070060;28;19925;-61
2023/09/03 05:24:42;;;;;;;;;;;20.60;51.00;;;;;;5075333;28;20019;-60
2023/09/03 05:27:09;;;;;;;;;;;20.50;52.00;;;;;;5058642;28;19925;-60
2023/09/03 05:29:36;;;;;;;;;;;20.30;51.80;;;;;;5060902;28;19970;-60
2023/09/03 05:32:03;;;;;;;;;;;20.20;51.20;;;;;;5069350;28;20436;-61
2023/09/03 05:34:30;;;;;;;;;;;20.10;51.80;;;;;;5074651;28;19971;-60
2023/09/03 05:37:01;;;;;;;;;;;20.00;52.30;;;;;;5063764;28;19928;-62
2023/09/03 05:39:28;;;;;;;;;;;19.80;51.80;;;;;;5069173;28;19935;-61
2023/09/03 05:41:55;;;;;;;;;;;19.80;52.90;;;;;;5062587;28;19968;-60
2023/09/03 05:44:22;;;;;;;;;;;19.70;54.00;;;;;;5062243;28;20008;-61
2023/09/03 05:46:49;;;;;;;;;;;19.70;53.30;;;;;;5062690;28;20007;-60
2023/09/03 05:49:16;;;;;;;;;;;19.60;53.10;;;;;;5055341;28;20015;-61
2023/09/03 05:51:43;;;;;;;;;;;19.60;53.30;;;;;;5049676;28;20591;-60
2023/09/03 05:54:10;;;;;;;;;;;19.60;53.80;;;;;;5068348;28;19924;-61
2023/09/03 05:56:37;;;;;;;;;;;19.40;53.40;;;;;;5064840;28;19987;-61
2023/09/03 05:59:05;;;;;;;;;;;19.40;52.90;;;;;;5054640;28;19925;-61
2023/09/03 06:01:33;;;;;;;;;;;19.40;54.30;;;;;;5054893;28;19931;-62
2023/09/03 06:04:04;;;;;;;;;;;19.30;54.20;;;;;;5053544;28;20023;-61
2023/09/03 06:06:36;;;;;;;;;;;19.30;54.20;;;;;;5051379;28;19987;-62
2023/09/03 06:09:04;;;;;;;;;;;19.30;54.90;;;;;;5072918;28;20018;-62
2023/09/03 06:11:31;;;;;;;;;;;19.20;55.70;;;;;;5066162;28;19924;-62
2023/09/03 06:13:58;;;;;;;;;;;19.20;54.40;;;;;;5066631;28;20378;-61
2023/09/03 06:16:25;;;;;;;;;;;19.20;53.80;;;;;;5067837;28;20423;-62
2023/09/03 06:18:53;;;;;;;;;;;19.20;54.00;;;;;;5074794;28;19932;-62
2023/09/03 06:21:20;;;;;;;;;;;19.20;54.10;;;;;;5067413;28;19925;-62
2023/09/03 06:23:47;;;;;;;;;;;19.10;53.90;;;;;;5063223;28;19989;-61
2023/09/03 06:26:14;;;;;;;;;;;19.10;54.90;;;;;;5074048;28;19954;-62
2023/09/03 06:28:41;;;;;;;;;;;19.10;54.50;;;;;;5074253;28;19924;-62
2023/09/03 06:31:08;;;;;;;;;;;19.10;53.20;;;;;;5074271;28;19947;-62
2023/09/03 06:33:39;;;;;;;;;;;19.00;56.60;;;;;;5056332;28;19924;-62
2023/09/03 06:36:06;;;;;;;;;;;19.00;55.70;;;;;;5052124;28;20019;-63
2023/09/03 06:38:33;;;;;;;;;;;19.00;55.80;;;;;;5067242;28;19993;-61
2023/09/03 06:41:00;;;;;;;;;;;18.90;55.50;;;;;;5070879;28;19975;-61
2023/09/03 06:43:27;;;;;;;;;;;18.90;56.50;;;;;;5053617;28;20325;-62
2023/09/03 06:45:54;;;;;;;;;;;18.80;57.10;;;;;;5053828;28;19925;-62
2023/09/03 06:48:21;;;;;;;;;;;18.70;57.40;;;;;;5054235;28;19924;-62
2023/09/03 06:50:48;;;;;;;;;;;18.60;58.90;;;;;;5053851;28;19971;-61
2023/09/03 06:53:15;;;;;;;;;;;18.50;59.50;;;;;;5053961;28;19925;-62
2023/09/03 06:55:43;;;;;;;;;;;18.60;57.00;;;;;;5053841;28;19967;-61
2023/09/03 06:58:10;;;;;;;;;;;18.60;57.60;;;;;;5053675;28;19971;-61
2023/09/03 07:00:37;;;;;;;;;;;18.60;58.80;;;;;;5054079;28;20278;-61
2023/09/03 07:03:04;;;;;;;;;;;18.60;57.30;;;;;;5053476;28;19925;-61
2023/09/03 07:05:31;;;;;;;;;;;18.60;56.90;;;;;;5053369;28;19932;-61
2023/09/03 07:07:58;;;;;;;;;;;18.60;57.40;;;;;;5053766;28;19983;-62
2023/09/03 07:10:25;;;;;;;;;;;18.60;58.50;;;;;;5053900;28;19994;-62
2023/09/03 07:12:52;;;;;;;;;;;18.60;58.00;;;;;;5040222;28;19937;-62
2023/09/03 07:15:19;;;;;;;;;;;18.60;58.60;;;;;;5036207;28;19933;-62
2023/09/03 07:17:46;;;;;;;;;;;18.60;55.60;;;;;;5052889;28;20419;-61
2023/09/03 07:20:13;;;;;;;;;;;18.70;56.90;;;;;;5053185;28;20011;-63
2023/09/03 07:22:41;;;;;;;;;;;18.70;56.90;;;;;;5039918;28;20012;-62
2023/09/03 07:25:08;;;;;;;;;;;18.70;58.60;;;;;;5052737;28;19955;-62
2023/09/03 07:27:39;;;;;;;;;;;18.70;59.20;;;;;;5043408;28;19983;-62
2023/09/03 07:30:07;;;;;;;;;;;18.70;59.30;;;;;;5033124;28;19925;-61
2023/09/03 07:32:34;;;;;;;;;;;18.70;60.70;;;;;;5052974;28;19976;-61
2023/09/03 07:35:02;;;;;;;;;;;18.70;60.20;;;;;;5053314;28;19925;-61
2023/09/03 07:37:29;;;;;;;;;;;18.70;60.20;;;;;;5053377;28;20361;-62
2023/09/03 07:39:56;;;;;;;;;;;18.70;59.90;;;;;;5040466;28;20015;-62
2023/09/03 07:42:23;;;;;;;;;;;18.70;60.80;;;;;;5052335;28;19929;-62
2023/09/03 07:44:50;;;;;;;;;;;18.70;60.20;;;;;;5049730;28;19925;-62
2023/09/03 07:47:19;;;;;;;;;;;18.70;58.80;;;;;;5050511;28;19931;-62
2023/09/03 07:49:46;;;;;;;;;;;18.70;59.10;;;;;;5053228;28;19972;-62
2023/09/03 07:52:13;;;;;;;;;;;18.70;60.10;;;;;;5052363;28;19979;-61
2023/09/03 07:54:40;;;;;;;;;;;18.70;59.40;;;;;;5052065;28;19924;-62
2023/09/03 07:57:07;;;;;;;;;;;18.80;60.80;;;;;;5048314;28;19976;-62
2023/09/03 07:59:35;;;;;;;;;;;18.80;60.80;;;;;;5033050;28;20024;-62
2023/09/03 08:02:02;;;;;;;;;;;18.80;60.60;;;;;;5039625;28;19979;-62
2023/09/03 08:04:30;;;;;;;;;;;18.80;61.60;;;;;;5052672;28;20370;-62
2023/09/03 08:06:57;;;;;;;;;;;18.90;61.80;;;;;;5040157;28;19932;-62
2023/09/03 08:09:24;;;;;;;;;;;18.90;62.00;;;;;;5051639;28;20288;-62
2023/09/03 08:11:52;;;;;;;;;;;18.90;62.20;;;;;;5055288;28;19925;-62
2023/09/03 08:14:20;;;;;;;;;;;18.90;62.50;;;;;;5053198;28;20015;-61
2023/09/03 08:16:47;;;;;;;;;;;18.90;62.80;;;;;;5057009;28;19968;-62
2023/09/03 08:19:14;;;;;;;;;;;18.90;62.80;;;;;;5056582;28;19928;-62
2023/09/03 08:21:41;;;;;;;;;;;19.00;62.70;;;;;;5056584;28;20019;-61
2023/09/03 08:24:09;;;;;;;;;;;19.00;62.90;;;;;;5064702;28;19924;-61
2023/09/03 08:26:36;;;;;;;;;;;19.00;63.70;;;;;;5062522;28;20403;-62
2023/09/03 08:29:03;;;;;;;;;;;19.10;63.80;;;;;;5076409;28;20343;-61
2023/09/03 08:31:30;;;;;;;;;;;19.10;62.50;;;;;;5068294;28;20007;-62
2023/09/03 08:33:57;;;;;;;;;;;19.10;63.80;;;;;;5056917;28;20332;-62
2023/09/03 08:36:24;;;;;;;;;;;19.20;63.40;;;;;;5056131;28;20016;-62
2023/09/03 08:38:52;;;;;;;;;;;19.20;63.30;;;;;;5056536;28;20351;-62
2023/09/03 08:41:21;;;;;;;;;;;19.30;62.90;;;;;;5056140;28;20369;-62
2023/09/03 08:43:48;;;;;;;;;;;19.30;63.10;;;;;;5056320;28;19982;-62
2023/09/03 08:46:16;;;;;;;;;;;19.40;62.90;;;;;;5056235;28;19983;-62
2023/09/03 08:48:44;;;;;;;;;;;19.40;63.00;;;;;;5055895;28;20314;-62
2023/09/03 08:51:17;;;;;;;;;;;19.50;63.20;;;;;;5056547;28;19935;-61
2023/09/03 08:53:45;;;;;;;;;;;19.50;62.90;;;;;;5063632;28;20321;-62
2023/09/03 08:56:11;;;;;;;;;;;19.50;62.90;;;;;;5075753;28;20016;-62
2023/09/03 08:58:38;;;;;;;;;;;19.60;62.40;;;;;;5075219;28;19924;-62
2023/09/03 09:01:06;;;;;;;;;;;19.60;62.40;;;;;;5071384;28;19956;-62
2023/09/03 09:03:34;;;;;;;;;;;19.70;62.40;;;;;;5067221;28;19940;-62
2023/09/03 09:06:02;;;;;;;;;;;19.70;63.50;;;;;;5055772;28;19924;-62
2023/09/03 09:08:29;;;;;;;;;;;19.70;63.00;;;;;;5055422;28;19970;-62
2023/09/03 09:10:59;;;;;;;;;;;19.80;62.50;;;;;;5055467;28;19931;-62
2023/09/03 09:13:26;;;;;;;;;;;19.80;62.70;;;;;;5060823;28;20041;-62
2023/09/03 09:15:53;;;;;;;;;;;19.90;62.40;;;;;;5075325;28;19943;-62
2023/09/03 09:18:20;;;;;;;;;;;20.00;61.00;;;;;;5070468;28;20001;-62
2023/09/03 09:20:49;;;;;;;;;;;20.00;62.00;;;;;;5055373;28;20009;-62
2023/09/03 09:23:20;;;;;;;;;;;20.00;62.10;;;;;;5035749;28;19965;-62
2023/09/03 09:25:48;;;;;;;;;;;20.10;61.80;;;;;;5042204;28;19940;-62
2023/09/03 09:28:15;;;;;;;;;;;20.10;60.30;;;;;;5069663;28;19924;-62
2023/09/03 09:30:55;;;;;;;;;;;20.20;61.30;;;;;;5075356;28;19925;-62
2023/09/03 09:33:22;;;;;;;;;;;20.20;60.70;;;;;;5035933;28;20019;-61
2023/09/03 09:35:50;;;;;;;;;;;20.20;61.50;;;;;;5035424;28;19931;-62
2023/09/03 09:38:17;;;;;;;;;;;20.20;61.80;;;;;;5052482;28;19936;-62
2023/09/03 09:40:45;;;;;;;;;;;20.30;61.00;;;;;;5075370;28;19928;-62
2023/09/03 09:43:12;;;;;;;;;;;20.30;61.30;;;;;;5056286;28;19925;-62
2023/09/03 09:45:49;;;;;;;;;;;20.30;61.60;;;;;;5054933;28;19979;-62
2023/09/03 09:48:16;;;;;;;;;;;20.40;62.00;;;;;;5054054;28;19925;-62
2023/09/03 09:50:44;;;;;;;;;;;20.40;61.50;;;;;;5054741;28;19931;-62
2023/09/03 09:53:23;;;;;;;;;;;20.40;61.40;;;;;;5062559;28;20450;-62
2023/09/03 09:55:58;;;;;;;;;;;20.40;61.80;;;;;;5075213;28;19975;-62
2023/09/03 09:58:36;;;;;;;;;;;20.50;60.50;;;;;;5074537;28;19987;-62
2023/09/03 10:01:03;;;;;;;;;;;20.50;61.40;;;;;;5075099;28;19924;-62
2023/09/03 10:03:40;;;;;;;;;;;20.50;60.90;;;;;;5074661;28;19931;-62
2023/09/03 10:06:08;;;;;;;;;;;20.50;61.90;;;;;;5074802;28;20388;-62
2023/09/03 10:08:36;;;;;;;;;;;20.50;60.00;;;;;;5061992;28;20492;-62
2023/09/03 10:11:03;;;;;;;;;;;20.60;61.20;;;;;;5074870;28;19931;-62
2023/09/03 10:13:31;;;;;;;;;;;20.60;61.30;;;;;;5057619;28;20004;-62
2023/09/03 10:16:04;;;;;;;;;;;20.60;60.50;;;;;;5072533;28;19932;-62
2023/09/03 10:18:34;;;;;;;;;;;20.60;61.00;;;;;;5052530;28;19925;-62
2023/09/03 10:21:03;;;;;;;;;;;20.70;60.80;;;;;;5074023;28;20023;-62
2023/09/03 10:23:33;;;;;;;;;;;20.70;60.90;;;;;;5073526;28;19930;-62
2023/09/03 10:26:02;;;;;;;;;;;20.70;60.50;;;;;;5074237;28;20019;-62
2023/09/03 10:28:34;;;;;;;;;;;20.70;59.70;;;;;;5055929;28;19924;-62
2023/09/03 10:31:01;;;;;;;;;;;20.80;60.30;;;;;;5054668;28;20020;-62
2023/09/03 10:33:28;;;;;;;;;;;20.80;59.60;;;;;;5057654;28;19925;-62
2023/09/03 10:36:15;;;;;;;;;;;20.80;60.10;;;;;;5074128;28;19982;-62
2023/09/03 10:38:42;;;;;;;;;;;20.80;60.40;;;;;;5053897;28;19925;-62
2023/09/03 10:41:19;;;;;;;;;;;20.80;59.90;;;;;;5052970;28;19968;-62
2023/09/03 10:43:51;;;;;;;;;;;20.80;60.20;;;;;;5067767;28;19932;-62
2023/09/03 10:46:18;;;;;;;;;;;20.80;60.20;;;;;;5073724;28;19972;-62
2023/09/03 10:48:55;;;;;;;;;;;20.80;60.90;;;;;;5055393;28;19924;-62
2023/09/03 10:51:30;;;;;;;;;;;20.80;60.60;;;;;;5073730;28;20388;-62
2023/09/03 10:54:13;;;;;;;;;;;20.70;60.70;;;;;;5065159;28;19925;-62
2023/09/03 10:57:00;;;;;;;;;;;20.70;60.50;;;;;;5053548;28;20019;-62
2023/09/03 10:59:46;;;;;;;;;;;20.70;61.10;;;;;;5053867;28;19972;-61
2023/09/03 11:02:23;;;;;;;;;;;20.70;60.70;;;;;;5053731;28;19925;-62
2023/09/03 11:05:10;;;;;;;;;;;20.70;60.20;;;;;;5053877;28;19924;-63
2023/09/03 11:07:37;;;;;;;;;;;20.70;61.30;;;;;;5053107;28;19925;-62
2023/09/03 11:10:25;;;;;;;;;;;20.70;60.80;;;;;;5053451;28;19956;-62
2023/09/03 11:12:53;;;;;;;;;;;20.60;60.80;;;;;;5052442;28;19931;-62
2023/09/03 11:15:21;;;;;;;;;;;20.70;60.70;;;;;;5052642;28;20220;-61
2023/09/03 11:17:56;;;;;;;;;;;20.60;60.20;;;;;;5054443;28;19964;-62
2023/09/03 11:20:34;;;;;;;;;;;20.70;60.20;;;;;;5073424;28;19932;-62
2023/09/03 11:23:17;;;;;;;;;;;20.60;60.80;;;;;;5059737;28;20370;-62
2023/09/03 11:25:44;;;;;;;;;;;20.60;60.00;;;;;;5053067;28;20285;-62
2023/09/03 11:28:12;;;;;;;;;;;20.60;61.30;;;;;;5053682;28;20336;-62
2023/09/03 11:30:40;;;;;;;;;;;20.60;61.10;;;;;;5053344;28;19932;-62
2023/09/03 11:33:08;;;;;;;;;;;20.60;60.80;;;;;;5052012;28;19933;-62
2023/09/03 11:35:42;;;;;;;;;;;20.60;60.20;;;;;;5066298;28;19925;-62
2023/09/03 11:38:09;;;;;;;;;;;20.60;61.10;;;;;;5061693;28;19931;-62
2023/09/03 11:40:36;;;;;;;;;;;20.60;61.00;;;;;;5052994;28;20027;-61
2023/09/03 11:43:03;;;;;;;;;;;20.60;61.10;;;;;;5064881;28;20033;-62
2023/09/03 11:45:31;;;;;;;;;;;20.60;61.10;;;;;;5072853;28;20351;-62
2023/09/03 11:47:58;;;;;;;;;;;20.60;61.10;;;;;;5064459;28;19928;-62
2023/09/03 11:50:25;;;;;;;;;;;20.70;61.30;;;;;;5052408;28;20424;-61
2023/09/03 11:52:56;;;;;;;;;;;20.60;61.30;;;;;;5049921;28;20012;-61
2023/09/03 11:55:25;;;;;;;;;;;20.60;61.30;;;;;;5057141;28;20003;-62
2023/09/03 11:57:53;;;;;;;;;;;20.60;61.50;;;;;;5064635;28;20369;-62
2023/09/03 12:00:20;;;;;;;;;;;20.60;61.40;;;;;;5052621;28;20015;-62
2023/09/03 12:02:47;;;;;;;;;;;20.70;61.10;;;;;;5053343;28;20422;-62
2023/09/03 12:05:15;;;;;;;;;;;20.70;60.90;;;;;;5052655;28;20011;-61
2023/09/03 12:07:42;;;;;;;;;;;20.70;61.00;;;;;;5059152;28;19947;-61
2023/09/03 12:10:09;;;;;;;;;;;20.70;60.90;;;;;;5073066;28;19924;-61
2023/09/03 12:12:36;;;;;;;;;;;20.80;61.00;;;;;;5065304;28;19931;-61
2023/09/03 12:15:16;;;;;;;;;;;20.80;61.10;;;;;;5068106;28;19940;-62
2023/09/03 12:17:42;;;;;;;;;;;20.80;61.20;;;;;;5061846;28;19955;-61
2023/09/03 12:20:29;;;;;;;;;;;20.70;61.10;;;;;;5053165;28;19987;-61
2023/09/03 12:23:05;;;;;;;;;;;20.70;60.30;;;;;;5051568;28;20019;-61
2023/09/03 12:25:34;;;;;;;;;;;20.80;61.20;;;;;;5052111;28;19964;-61
2023/09/03 12:28:01;;;;;;;;;;;20.80;60.50;;;;;;5063739;28;20381;-61
2023/09/03 12:30:47;;;;;;;;;;;20.80;61.10;;;;;;5072807;28;20015;-61
2023/09/03 12:33:14;;;;;;;;;;;20.80;61.00;;;;;;5072431;28;20440;-61
2023/09/03 12:35:41;;;;;;;;;;;20.80;61.50;;;;;;5072798;28;19929;-61
2023/09/03 12:38:09;;;;;;;;;;;20.70;61.00;;;;;;5064574;28;20407;-61
2023/09/03 12:40:36;;;;;;;;;;;20.80;61.30;;;;;;5053005;28;19964;-61
2023/09/03 12:43:03;;;;;;;;;;;20.70;61.00;;;;;;5052658;28;19964;-61
2023/09/03 12:45:30;;;;;;;;;;;20.70;61.30;;;;;;5052242;28;20361;-61
2023/09/03 12:47:57;;;;;;;;;;;20.80;60.40;;;;;;5052407;28;19924;-61
2023/09/03 12:50:24;;;;;;;;;;;20.70;60.40;;;;;;5052467;28;19925;-60
2023/09/03 12:52:51;;;;;;;;;;;20.70;60.50;;;;;;5052061;28;20266;-62
2023/09/03 12:55:18;;;;;;;;;;;20.80;60.90;;;;;;5072132;28;20020;-62
2023/09/03 12:57:48;;;;;;;;;;;20.80;60.50;;;;;;5067795;28;19928;-62
2023/09/03 13:00:15;;;;;;;;;;;20.70;60.80;;;;;;5051080;28;19983;-62
2023/09/03 13:02:42;;;;;;;;;;;20.80;61.10;;;;;;5055496;28;19925;-61
2023/09/03 13:05:09;;;;;;;;;;;20.70;60.70;;;;;;5055827;28;20373;-62
2023/09/03 13:07:36;;;;;;;;;;;20.70;60.80;;;;;;5062430;28;20019;-62
2023/09/03 13:10:03;;;;;;;;;;;20.70;60.10;;;;;;5056124;28;19964;-62
2023/09/03 13:12:33;;;;;;;;;;;20.70;60.90;;;;;;5055784;28;19982;-62
2023/09/03 13:15:00;;;;;;;;;;;20.70;60.40;;;;;;5055801;28;20048;-62
2023/09/03 13:17:30;;;;;;;;;;;20.70;60.30;;;;;;5055902;28;20325;-62
2023/09/03 13:19:57;;;;;;;;;;;20.70;60.80;;;;;;5063879;28;19924;-62
2023/09/03 13:22:24;;;;;;;;;;;20.80;60.90;;;;;;5059355;28;19931;-62
2023/09/03 13:24:51;;;;;;;;;;;20.80;59.50;;;;;;5072759;28;19964;-62
2023/09/03 13:27:18;;;;;;;;;;;20.80;59.60;;;;;;5066740;28;20372;-62
2023/09/03 13:29:45;;;;;;;;;;;20.80;59.50;;;;;;5057018;28;19967;-61
2023/09/03 13:32:12;;;;;;;;;;;20.80;60.90;;;;;;5054829;28;20015;-62
2023/09/03 13:34:40;;;;;;;;;;;20.80;60.40;;;;;;5054615;28;19984;-62
2023/09/03 13:37:07;;;;;;;;;;;20.70;60.50;;;;;;5055752;28;19925;-62
2023/09/03 13:39:34;;;;;;;;;;;20.70;60.20;;;;;;5058399;28;20429;-62
2023/09/03 13:42:02;;;;;;;;;;;20.70;60.20;;;;;;5075235;28;19925;-62
2023/09/03 13:44:29;;;;;;;;;;;20.70;59.70;;;;;;5054919;28;19925;-62
2023/09/03 13:46:56;;;;;;;;;;;20.70;59.30;;;;;;5069865;28;20035;-62
2023/09/03 13:49:23;;;;;;;;;;;20.70;60.10;;;;;;5059365;28;20007;-62
2023/09/03 13:51:50;;;;;;;;;;;20.60;60.70;;;;;;5054368;28;19929;-62
2023/09/03 13:54:17;;;;;;;;;;;20.60;60.30;;;;;;5055510;28;20419;-62
2023/09/03 13:56:44;;;;;;;;;;;20.60;60.10;;;;;;5055383;28;19967;-62
2023/09/03 13:59:11;;;;;;;;;;;20.60;61.10;;;;;;5053698;28;20278;-62
2023/09/03 14:01:38;;;;;;;;;;;20.60;60.60;;;;;;5054207;28;19971;-62
2023/09/03 14:04:05;;;;;;;;;;;20.50;60.00;;;;;;5055154;28;20385;-62
2023/09/03 14:06:34;;;;;;;;;;;20.70;66.40;;;;;;5054651;28;19935;-62
2023/09/03 14:09:01;;;;;;;;;;;20.80;72.00;;;;;;5066626;28;19982;-62
2023/09/03 14:11:29;;;;;;;;;;;21.10;75.20;;;;;;5074568;28;19924;-62
2023/09/03 14:13:56;;;;;;;;;;;21.40;75.80;;;;;;5073886;28;19928;-62
2023/09/03 14:16:23;;;;;;;;;;;21.70;76.30;;;;;;5061981;28;20031;-63
2023/09/03 14:18:51;;;;;;;;;;;21.90;76.30;;;;;;5054920;28;19924;-62
2023/09/03 14:21:19;;;;;;;;;;;22.20;76.20;;;;;;5048752;28;19983;-62
2023/09/03 14:23:47;;;;;;;;;;;22.40;76.00;;;;;;5054009;28;19987;-62